createdAt,value
2023-03-27T00:01:44.670Z,5.10
2023-03-27T00:04:11.313Z,5.10
2023-03-27T00:06:44.514Z,5.10
2023-03-27T00:09:11.946Z,5.10
2023-03-27T00:11:38.562Z,5.10
2023-03-27T00:14:05.134Z,5.20
2023-03-27T00:16:31.728Z,5.10
2023-03-27T00:18:58.362Z,5.10
2023-03-27T00:21:24.983Z,5.10
2023-03-27T00:23:51.562Z,5.10
2023-03-27T00:26:18.139Z,5.10
2023-03-27T00:28:44.698Z,5.10
2023-03-27T00:31:13.338Z,5.20
2023-03-27T00:33:40.822Z,5.20
2023-03-27T00:36:08.413Z,5.20
2023-03-27T00:38:35.024Z,5.20
2023-03-27T00:41:01.674Z,5.20
2023-03-27T00:43:34.119Z,5.30
2023-03-27T00:46:08.187Z,5.30
2023-03-27T00:48:36.860Z,5.20
2023-03-27T00:51:05.468Z,5.20
2023-03-27T00:53:32.726Z,5.30
2023-03-27T00:56:04.955Z,5.30
2023-03-27T00:58:46.606Z,5.30
2023-03-27T01:01:15.686Z,5.30
2023-03-27T01:03:46.226Z,5.30
2023-03-27T01:06:15.452Z,5.30
2023-03-27T01:08:43.878Z,5.30
2023-03-27T01:11:19.056Z,5.30
2023-03-27T01:13:45.538Z,5.30
2023-03-27T01:16:23.685Z,5.30
2023-03-27T01:19:17.192Z,5.30
2023-03-27T01:21:58.529Z,5.20
2023-03-27T01:24:46.152Z,5.20
2023-03-27T01:27:38.666Z,5.20
2023-03-27T01:30:27.580Z,5.20
2023-03-27T01:33:05.830Z,5.20
2023-03-27T01:36:01.363Z,5.20
2023-03-27T01:38:57.228Z,5.20
2023-03-27T01:41:32.736Z,5.20
2023-03-27T01:44:03.262Z,5.20
2023-03-27T01:46:54.574Z,5.20
2023-03-27T01:49:35.914Z,5.20
2023-03-27T01:52:08.919Z,5.20
2023-03-27T01:54:39.395Z,5.20
2023-03-27T01:57:19.365Z,5.20
2023-03-27T01:59:52.392Z,5.10
2023-03-27T02:02:29.357Z,5.10
2023-03-27T02:05:03.137Z,5.10
2023-03-27T02:07:43.716Z,5.10
2023-03-27T02:10:16.374Z,5.10
2023-03-27T02:12:48.201Z,5.10
2023-03-27T02:15:25.460Z,5.00
2023-03-27T02:18:07.272Z,5.10
2023-03-27T02:20:35.574Z,5.00
2023-03-27T02:23:02.666Z,5.00
2023-03-27T02:25:31.130Z,5.10
2023-03-27T02:28:17.888Z,5.00
2023-03-27T02:31:05.366Z,5.00
2023-03-27T02:33:59.894Z,5.00
2023-03-27T02:36:55.932Z,5.10
2023-03-27T02:39:46.676Z,5.10
2023-03-27T02:42:20.592Z,5.10
2023-03-27T02:44:50.330Z,5.10
2023-03-27T02:47:40.260Z,5.10
2023-03-27T02:50:30.058Z,5.20
2023-03-27T02:53:00.963Z,5.20
2023-03-27T02:55:34.148Z,5.20
2023-03-27T02:58:04.218Z,5.10
2023-03-27T03:00:35.058Z,5.20
2023-03-27T03:03:23.030Z,5.20
2023-03-27T03:05:49.594Z,5.20
2023-03-27T03:08:16.209Z,5.20
2023-03-27T03:10:44.595Z,5.20
2023-03-27T03:13:11.430Z,5.10
2023-03-27T03:15:38.011Z,5.10
2023-03-27T03:18:04.984Z,5.10
2023-03-27T03:20:31.547Z,5.10
2023-03-27T03:22:58.072Z,5.10
2023-03-27T03:25:24.646Z,5.10
2023-03-27T03:27:51.868Z,5.20
2023-03-27T03:30:18.493Z,5.20
2023-03-27T03:32:45.155Z,5.20
2023-03-27T03:35:11.755Z,5.30
2023-03-27T03:37:38.311Z,5.30
2023-03-27T03:40:08.536Z,5.40
2023-03-27T03:42:35.079Z,5.40
2023-03-27T03:45:01.625Z,5.40
2023-03-27T03:47:28.250Z,5.40
2023-03-27T03:49:54.853Z,5.50
2023-03-27T03:52:21.418Z,5.30
2023-03-27T03:54:48.003Z,5.40
2023-03-27T03:57:14.650Z,5.40
2023-03-27T03:59:41.658Z,5.40
2023-03-27T04:02:08.258Z,5.30
2023-03-27T04:04:34.857Z,5.20
2023-03-27T04:07:01.404Z,5.20
2023-03-27T04:09:27.959Z,5.20
2023-03-27T04:11:54.523Z,5.20
2023-03-27T04:14:21.068Z,5.30
2023-03-27T04:16:47.644Z,5.30
2023-03-27T04:19:14.182Z,5.10
2023-03-27T04:21:40.719Z,5.10
2023-03-27T04:24:07.455Z,5.00
2023-03-27T04:26:34.061Z,4.90
2023-03-27T04:29:00.739Z,4.90
2023-03-27T04:31:27.334Z,4.80
2023-03-27T04:33:53.898Z,4.80
2023-03-27T04:36:20.516Z,4.70
2023-03-27T04:38:47.392Z,4.70
2023-03-27T04:41:13.923Z,4.70
2023-03-27T04:43:40.496Z,4.80
2023-03-27T04:46:07.679Z,4.70
2023-03-27T04:48:35.411Z,4.70
2023-03-27T04:51:01.963Z,4.70
2023-03-27T04:53:28.574Z,4.70
2023-03-27T04:55:55.156Z,4.60
2023-03-27T04:58:21.687Z,4.50
2023-03-27T05:00:48.293Z,4.60
2023-03-27T05:03:14.933Z,4.50
2023-03-27T05:05:41.502Z,4.50
2023-03-27T05:08:08.099Z,4.70
2023-03-27T05:10:34.630Z,4.60
2023-03-27T05:13:01.175Z,4.40
2023-03-27T05:15:27.763Z,4.30
2023-03-27T05:17:54.439Z,4.30
2023-03-27T05:20:21.200Z,4.30
2023-03-27T05:22:48.219Z,4.10
2023-03-27T05:25:14.925Z,4.10
2023-03-27T05:27:49.445Z,4.10
2023-03-27T05:30:16.889Z,4.10
2023-03-27T05:32:51.331Z,4.00
2023-03-27T05:35:22.111Z,4.10
2023-03-27T05:37:50.822Z,4.00
2023-03-27T05:40:20.016Z,4.00
2023-03-27T05:42:47.194Z,3.90
2023-03-27T05:45:14.708Z,3.90
2023-03-27T05:47:55.430Z,3.80
2023-03-27T05:50:25.289Z,3.80
2023-03-27T05:53:03.543Z,3.70
2023-03-27T05:55:30.843Z,3.70
2023-03-27T05:57:57.442Z,3.60
2023-03-27T06:00:24.869Z,3.60
2023-03-27T06:02:54.922Z,3.70
2023-03-27T06:05:21.537Z,3.80
2023-03-27T06:07:48.182Z,3.80
2023-03-27T06:10:16.797Z,3.60
2023-03-27T06:12:45.507Z,3.60
2023-03-27T06:15:13.719Z,3.80
2023-03-27T06:17:40.954Z,3.70
2023-03-27T06:20:09.218Z,3.60
2023-03-27T06:22:41.127Z,3.60
2023-03-27T06:25:08.036Z,3.50
2023-03-27T06:27:34.565Z,3.40
2023-03-27T06:30:01.120Z,3.30
2023-03-27T06:32:27.797Z,3.20
2023-03-27T06:34:54.388Z,3.20
2023-03-27T06:37:20.922Z,3.00
2023-03-27T06:39:47.475Z,3.00
2023-03-27T06:42:14.044Z,2.90
2023-03-27T06:44:40.773Z,2.90
2023-03-27T06:47:07.493Z,3.00
2023-03-27T06:49:34.060Z,2.90
2023-03-27T06:52:00.632Z,3.00
2023-03-27T06:54:27.201Z,3.00
2023-03-27T06:56:53.788Z,2.90
2023-03-27T06:59:21.105Z,2.90
2023-03-27T07:01:47.688Z,2.90
2023-03-27T07:04:14.271Z,3.10
2023-03-27T07:06:40.884Z,3.10
2023-03-27T07:09:07.549Z,3.20
2023-03-27T07:11:34.262Z,3.20
2023-03-27T07:14:00.872Z,3.10
2023-03-27T07:16:27.648Z,3.20
2023-03-27T07:18:54.263Z,3.20
2023-03-27T07:21:20.840Z,3.30
2023-03-27T07:23:47.384Z,3.20
2023-03-27T07:26:14.138Z,3.30
2023-03-27T07:28:40.689Z,3.30
2023-03-27T07:31:25.980Z,3.20
2023-03-27T07:33:58.550Z,3.10
2023-03-27T07:36:25.145Z,3.10
2023-03-27T07:38:51.674Z,3.10
2023-03-27T07:41:18.299Z,3.10
2023-03-27T07:43:44.840Z,3.20
2023-03-27T07:46:11.435Z,3.30
2023-03-27T07:48:38.122Z,3.20
2023-03-27T07:53:35.228Z,3.20
2023-03-27T07:56:01.862Z,3.10
2023-03-27T07:58:28.548Z,3.20
2023-03-27T08:00:58.913Z,3.10
2023-03-27T08:03:25.630Z,3.20
2023-03-27T08:05:55.237Z,3.00
2023-03-27T08:08:22.046Z,3.20
2023-03-27T08:10:48.860Z,3.00
2023-03-27T08:13:15.415Z,2.90
2023-03-27T08:15:41.981Z,2.90
2023-03-27T08:18:08.571Z,2.90
2023-03-27T08:20:35.170Z,3.00
2023-03-27T08:23:01.715Z,3.00
2023-03-27T08:25:28.283Z,3.10
2023-03-27T08:27:54.845Z,3.20
2023-03-27T08:30:21.524Z,3.20
2023-03-27T08:32:48.146Z,3.30
2023-03-27T08:35:14.948Z,3.40
2023-03-27T08:37:41.584Z,3.30
2023-03-27T08:40:19.359Z,3.30
2023-03-27T08:42:49.752Z,3.40
2023-03-27T08:45:42.731Z,3.40
2023-03-27T08:48:37.258Z,3.60
2023-03-27T08:51:07.464Z,3.70
2023-03-27T08:53:47.522Z,3.60
2023-03-27T08:56:15.804Z,3.50
2023-03-27T08:58:45.950Z,3.60
2023-03-27T09:01:28.494Z,3.70
2023-03-27T09:04:20.989Z,3.70
2023-03-27T09:07:06.502Z,3.70
2023-03-27T09:09:54.562Z,3.60
2023-03-27T09:12:29.904Z,3.60
2023-03-27T09:15:15.124Z,3.60
2023-03-27T09:17:51.642Z,3.60
2023-03-27T09:20:30.780Z,3.60
2023-03-27T09:23:08.945Z,3.50
2023-03-27T09:25:38.424Z,3.50
2023-03-27T09:28:25.215Z,3.60
2023-03-27T09:30:51.792Z,3.70
2023-03-27T09:33:18.527Z,3.80
2023-03-27T09:35:46.063Z,3.80
2023-03-27T09:38:18.699Z,4.00
2023-03-27T09:40:53.933Z,3.90
2023-03-27T09:43:25.508Z,3.90
2023-03-27T09:45:53.578Z,3.90
2023-03-27T09:49:00.911Z,4.00
2023-03-27T09:51:42.399Z,4.10
2023-03-27T09:54:11.040Z,3.90
2023-03-27T09:57:03.242Z,3.90
2023-03-27T09:59:35.702Z,3.90
2023-03-27T10:02:36.670Z,3.90
2023-03-27T10:05:15.486Z,3.90
2023-03-27T10:07:43.049Z,4.10
2023-03-27T10:10:20.020Z,4.10
2023-03-27T10:12:53.938Z,4.20
2023-03-27T10:15:38.147Z,4.30
2023-03-27T10:18:23.767Z,4.30
2023-03-27T10:20:52.675Z,4.30
2023-03-27T10:23:28.741Z,4.40
2023-03-27T10:26:00.552Z,4.60
2023-03-27T10:28:29.678Z,4.70
2023-03-27T10:31:05.438Z,4.80
2023-03-27T10:33:37.865Z,4.80
2023-03-27T10:36:06.493Z,4.60
2023-03-27T10:38:34.684Z,4.50
2023-03-27T10:41:06.626Z,4.60
2023-03-27T10:43:37.749Z,5.00
2023-03-27T10:46:09.316Z,5.40
2023-03-27T10:48:38.746Z,5.80
2023-03-27T10:51:11.357Z,6.00
2023-03-27T10:53:44.345Z,6.00
2023-03-27T10:56:25.656Z,5.90
2023-03-27T10:58:57.477Z,5.80
2023-03-27T11:01:40.354Z,5.90
2023-03-27T11:04:51.368Z,5.90
2023-03-27T11:07:27.108Z,5.50
2023-03-27T11:10:12.541Z,5.50
2023-03-27T11:12:42.594Z,5.30
2023-03-27T11:15:19.026Z,5.30
2023-03-27T11:18:11.337Z,5.50
2023-03-27T11:20:44.184Z,5.30
2023-03-27T11:23:17.496Z,5.30
2023-03-27T11:25:50.689Z,5.20
2023-03-27T11:28:22.940Z,5.30
2023-03-27T11:30:59.460Z,5.20
2023-03-27T11:33:45.594Z,4.90
2023-03-27T11:36:35.905Z,4.80
2023-03-27T11:39:19.537Z,4.80
2023-03-27T11:41:52.345Z,4.90
2023-03-27T11:44:19.383Z,5.40
2023-03-27T11:47:08.518Z,6.00
2023-03-27T11:50:20.102Z,6.10
2023-03-27T11:53:17.221Z,6.10
2023-03-27T11:56:19.739Z,6.10
2023-03-27T11:58:55.304Z,5.80
2023-03-27T12:01:47.205Z,5.90
2023-03-27T12:04:28.198Z,5.70
2023-03-27T12:07:34.018Z,5.70
2023-03-27T12:10:11.185Z,5.70
2023-03-27T12:13:05.560Z,5.60
2023-03-27T12:16:05.847Z,5.60
2023-03-27T12:19:01.972Z,5.90
2023-03-27T12:21:42.540Z,6.40
2023-03-27T12:24:33.895Z,6.50
2023-03-27T12:27:25.627Z,6.40
2023-03-27T12:30:12.456Z,6.00
2023-03-27T12:33:00.909Z,5.90
2023-03-27T12:35:32.485Z,5.90
2023-03-27T12:38:06.296Z,6.50
2023-03-27T12:40:40.323Z,7.00
2023-03-27T12:43:21.869Z,7.10
2023-03-27T12:46:20.392Z,7.00
2023-03-27T12:49:05.886Z,6.70
2023-03-27T12:52:01.196Z,6.60
2023-03-27T12:54:33.875Z,6.40
2023-03-27T12:57:18.609Z,6.40
2023-03-27T12:59:48.032Z,7.00
2023-03-27T13:02:48.352Z,7.40
2023-03-27T13:05:46.930Z,7.50
2023-03-27T13:08:35.487Z,7.10
2023-03-27T13:11:11.093Z,6.80
2023-03-27T13:13:55.770Z,6.50
2023-03-27T13:16:25.161Z,6.40
2023-03-27T13:19:21.620Z,6.20
2023-03-27T13:22:14.092Z,6.20
2023-03-27T13:24:51.303Z,6.40
2023-03-27T13:27:33.138Z,6.50
2023-03-27T13:29:59.784Z,6.50
2023-03-27T13:32:36.211Z,6.30
2023-03-27T13:35:21.268Z,6.10
2023-03-27T13:37:50.936Z,6.10
2023-03-27T13:40:33.269Z,6.00
2023-03-27T13:43:24.847Z,5.90
2023-03-27T13:45:55.137Z,5.40
2023-03-27T13:48:43.477Z,5.00
2023-03-27T13:51:56.337Z,4.60
2023-03-27T13:55:04.434Z,4.80
2023-03-27T13:57:58.162Z,5.00
2023-03-27T14:00:57.538Z,5.10
2023-03-27T14:03:47.734Z,5.50
2023-03-27T14:06:24.905Z,5.70
2023-03-27T14:09:22.086Z,5.80
2023-03-27T14:12:13.224Z,6.00
2023-03-27T14:14:52.107Z,5.90
2023-03-27T14:17:43.454Z,5.90
2023-03-27T14:20:33.850Z,5.80
2023-03-27T14:23:10.890Z,5.60
2023-03-27T14:25:42.879Z,5.60
2023-03-27T14:28:49.288Z,5.60
2023-03-27T14:31:16.094Z,5.70
2023-03-27T14:34:12.685Z,5.90
2023-03-27T14:36:39.945Z,5.70
2023-03-27T14:39:23.928Z,5.60
2023-03-27T14:42:00.379Z,5.80
2023-03-27T14:44:30.527Z,6.20
2023-03-27T14:47:03.192Z,6.30
2023-03-27T14:49:40.251Z,6.70
2023-03-27T14:52:09.583Z,6.70
2023-03-27T14:54:52.296Z,6.70
2023-03-27T14:57:23.533Z,6.60
2023-03-27T14:59:50.168Z,6.30
2023-03-27T15:02:22.089Z,6.40
2023-03-27T15:04:49.059Z,6.50
2023-03-27T15:07:23.687Z,6.60
2023-03-27T15:10:20.172Z,6.70
2023-03-27T15:12:46.756Z,6.90
2023-03-27T15:15:42.669Z,6.90
2023-03-27T15:18:36.968Z,7.10
2023-03-27T15:21:08.831Z,7.30
2023-03-27T15:23:44.769Z,7.30
2023-03-27T15:26:21.511Z,7.10
2023-03-27T15:29:10.154Z,7.20
2023-03-27T15:31:37.052Z,7.40
2023-03-27T15:34:10.640Z,7.30
2023-03-27T15:36:39.209Z,7.30
2023-03-27T15:39:06.248Z,7.00
2023-03-27T15:41:32.987Z,7.10
2023-03-27T15:44:02.859Z,7.10
2023-03-27T15:46:46.531Z,6.80
2023-03-27T15:49:27.845Z,6.60
2023-03-27T15:51:56.069Z,6.30
2023-03-27T15:54:26.963Z,6.20
2023-03-27T15:57:09.788Z,6.00
2023-03-27T15:59:51.960Z,5.70
2023-03-27T16:02:23.631Z,5.40
2023-03-27T16:04:52.754Z,4.70
2023-03-27T16:07:28.754Z,4.70
2023-03-27T16:10:00.635Z,4.60
2023-03-27T16:12:32.737Z,4.60
2023-03-27T16:15:00.945Z,4.80
2023-03-27T16:17:32.096Z,4.80
2023-03-27T16:20:12.087Z,4.80
2023-03-27T16:22:39.534Z,4.80
2023-03-27T16:25:10.371Z,5.00
2023-03-27T16:27:39.967Z,4.90
2023-03-27T16:30:09.680Z,4.80
2023-03-27T16:32:36.338Z,4.90
2023-03-27T16:35:02.983Z,4.90
2023-03-27T16:37:29.662Z,4.90
2023-03-27T16:39:56.213Z,4.90
2023-03-27T16:42:26.103Z,4.80
2023-03-27T16:44:53.179Z,4.70
2023-03-27T16:47:20.296Z,4.60
2023-03-27T16:49:56.273Z,4.60
2023-03-27T16:52:26.970Z,4.60
2023-03-27T16:54:54.088Z,4.50
2023-03-27T16:57:20.730Z,4.40
2023-03-27T16:59:47.301Z,4.40
2023-03-27T17:02:13.880Z,4.40
2023-03-27T17:04:40.502Z,4.30
2023-03-27T17:07:07.129Z,4.40
2023-03-27T17:09:33.832Z,4.40
2023-03-27T17:12:00.444Z,4.20
2023-03-27T17:14:27.051Z,4.30
2023-03-27T17:16:53.994Z,4.30
2023-03-27T17:19:20.864Z,4.30
2023-03-27T17:21:47.467Z,4.30
2023-03-27T17:24:14.056Z,4.30
2023-03-27T17:26:40.752Z,4.20
2023-03-27T17:29:07.330Z,4.10
2023-03-27T17:31:34.878Z,4.10
2023-03-27T17:34:01.453Z,4.10
2023-03-27T17:36:38.810Z,4.10
2023-03-27T17:39:06.875Z,4.10
2023-03-27T17:41:33.568Z,4.00
2023-03-27T17:44:00.130Z,4.10
2023-03-27T17:46:26.996Z,4.10
2023-03-27T17:48:53.569Z,4.10
2023-03-27T17:51:20.157Z,4.10
2023-03-27T17:53:46.760Z,4.30
2023-03-27T17:56:13.342Z,4.30
2023-03-27T17:58:41.062Z,4.30
2023-03-27T18:01:16.133Z,4.20
2023-03-27T18:03:43.004Z,3.90
2023-03-27T18:06:09.693Z,3.80
2023-03-27T18:08:36.329Z,3.60
2023-03-27T18:11:07.733Z,3.60
2023-03-27T18:13:34.748Z,3.50
2023-03-27T18:16:03.598Z,3.40
2023-03-27T18:18:32.582Z,3.30
2023-03-27T18:20:59.392Z,3.00
2023-03-27T18:23:26.276Z,3.00
2023-03-27T18:25:52.954Z,2.80
2023-03-27T18:28:19.562Z,2.80
2023-03-27T18:30:46.151Z,2.70
2023-03-27T18:33:12.691Z,2.60
2023-03-27T18:35:39.523Z,2.60
2023-03-27T18:38:06.302Z,2.60
2023-03-27T18:40:32.856Z,2.70
2023-03-27T18:42:59.686Z,2.60
2023-03-27T18:45:26.423Z,2.60
2023-03-27T18:47:53.104Z,2.50
2023-03-27T18:50:19.808Z,2.50
2023-03-27T18:52:46.373Z,2.50
2023-03-27T18:55:12.928Z,2.40
2023-03-27T18:57:39.513Z,2.50
2023-03-27T19:00:07.174Z,2.50
2023-03-27T19:02:33.882Z,2.50
2023-03-27T19:05:00.672Z,2.50
2023-03-27T19:07:27.291Z,2.40
2023-03-27T19:09:53.896Z,2.40
2023-03-27T19:12:20.458Z,2.30
2023-03-27T19:14:47.134Z,2.20
2023-03-27T19:17:13.732Z,2.20
2023-03-27T19:19:41.567Z,2.20
2023-03-27T19:22:09.988Z,2.10
2023-03-27T19:24:36.547Z,2.00
2023-03-27T19:27:03.225Z,2.00
2023-03-27T19:29:29.894Z,2.00
2023-03-27T19:31:56.612Z,2.00
2023-03-27T19:34:36.130Z,2.10
2023-03-27T19:37:08.821Z,2.10
2023-03-27T19:39:35.356Z,2.10
2023-03-27T19:42:01.927Z,2.10
2023-03-27T19:44:28.523Z,2.10
2023-03-27T19:46:55.131Z,2.10
2023-03-27T19:49:21.708Z,2.00
2023-03-27T19:51:48.261Z,2.00
2023-03-27T19:54:14.900Z,2.00
2023-03-27T19:56:41.534Z,2.00
2023-03-27T19:59:09.816Z,2.00
2023-03-27T20:01:39.750Z,2.10
2023-03-27T20:04:06.321Z,2.10
2023-03-27T20:06:32.882Z,2.00
2023-03-27T20:08:59.415Z,2.00
2023-03-27T20:11:26.193Z,2.00
2023-03-27T20:13:57.044Z,2.00
2023-03-27T20:16:28.239Z,2.10
2023-03-27T20:18:56.075Z,2.10
2023-03-27T20:21:24.395Z,2.00
2023-03-27T20:23:53.989Z,2.10
2023-03-27T20:26:21.868Z,2.10
2023-03-27T20:28:52.095Z,2.10
2023-03-27T20:31:19.612Z,2.10
2023-03-27T20:33:46.837Z,2.00
2023-03-27T20:36:14.198Z,2.00
2023-03-27T20:38:40.785Z,1.90
2023-03-27T20:41:07.373Z,2.00
2023-03-27T20:43:33.920Z,2.00
2023-03-27T20:46:04.250Z,2.00
2023-03-27T20:48:31.782Z,2.00
2023-03-27T20:50:58.346Z,2.00
2023-03-27T20:53:25.880Z,2.00
2023-03-27T20:56:06.170Z,1.90
2023-03-27T20:58:34.811Z,2.00
2023-03-27T21:01:01.396Z,2.00
2023-03-27T21:03:28.050Z,2.00
2023-03-27T21:05:54.644Z,2.00
2023-03-27T21:08:21.215Z,2.00
2023-03-27T21:10:53.065Z,2.00
2023-03-27T21:13:19.861Z,2.10
2023-03-27T21:15:46.489Z,1.90
2023-03-27T21:18:13.093Z,1.90
2023-03-27T21:20:39.652Z,1.90
2023-03-27T21:23:06.218Z,1.90
2023-03-27T21:25:34.646Z,1.80
2023-03-27T21:28:01.270Z,1.80
2023-03-27T21:30:46.863Z,1.90
2023-03-27T21:33:14.801Z,1.90
2023-03-27T21:35:42.012Z,1.90
2023-03-27T21:38:08.835Z,1.80
2023-03-27T21:40:38.532Z,1.90
2023-03-27T21:43:05.207Z,1.90
2023-03-27T21:45:31.800Z,1.90
2023-03-27T21:47:58.387Z,1.80
2023-03-27T21:50:24.997Z,1.80
2023-03-27T21:52:51.589Z,1.80
2023-03-27T21:55:18.200Z,1.70
2023-03-27T21:57:44.760Z,1.70
2023-03-27T22:00:11.911Z,1.80
2023-03-27T22:02:38.522Z,1.70
2023-03-27T22:05:05.542Z,1.70
2023-03-27T22:07:32.073Z,1.70
2023-03-27T22:09:58.637Z,1.70
2023-03-27T22:12:25.208Z,1.70
2023-03-27T22:14:51.871Z,1.80
2023-03-27T22:17:18.995Z,1.70
2023-03-27T22:19:45.539Z,1.80
2023-03-27T22:22:12.110Z,1.80
2023-03-27T22:24:38.744Z,1.80
2023-03-27T22:27:05.292Z,1.80
2023-03-27T22:29:32.422Z,1.80
2023-03-27T22:31:59.117Z,1.70
2023-03-27T22:34:25.714Z,1.80
2023-03-27T22:36:52.408Z,1.80
2023-03-27T22:39:19.192Z,1.80
2023-03-27T22:41:45.732Z,1.80
2023-03-27T22:44:12.271Z,1.80
2023-03-27T22:46:39.176Z,1.80
2023-03-27T22:49:05.772Z,1.70
2023-03-27T22:51:32.349Z,1.70
2023-03-27T22:53:58.985Z,1.70
2023-03-27T22:56:25.557Z,1.70
2023-03-27T22:58:52.083Z,1.70
2023-03-27T23:01:18.789Z,1.60
2023-03-27T23:03:45.519Z,1.60
2023-03-27T23:06:20.023Z,1.60
2023-03-27T23:08:47.413Z,1.60
2023-03-27T23:11:14.126Z,1.60
2023-03-27T23:13:41.274Z,1.60
2023-03-27T23:16:09.015Z,1.60
2023-03-27T23:18:36.141Z,1.60
2023-03-27T23:21:05.685Z,1.50
2023-03-27T23:23:33.582Z,1.50
2023-03-27T23:26:00.474Z,1.60
2023-03-27T23:28:31.229Z,1.50
2023-03-27T23:31:02.958Z,1.60
2023-03-27T23:33:36.840Z,1.70
2023-03-27T23:36:11.091Z,1.70
2023-03-27T23:38:38.607Z,1.70
2023-03-27T23:41:06.114Z,1.70
2023-03-27T23:43:33.349Z,1.70
2023-03-27T23:46:00.360Z,1.70
2023-03-27T23:48:28.744Z,1.70
2023-03-27T23:50:56.301Z,1.80
2023-03-27T23:53:24.564Z,1.70
2023-03-27T23:55:51.452Z,1.70
2023-03-27T23:58:18.250Z,1.80
